sensor_id;sensor_type;location;lat;lon;timestamp;P1;durP1;ratioP1;P2;durP2;ratioP2
52432;SDS011;38352;53.244;6.594;2024-03-08T00:00:56;50.97;;;23.67;;
52432;SDS011;38352;53.244;6.594;2024-03-08T00:03:22;54.38;;;24.75;;
52432;SDS011;38352;53.244;6.594;2024-03-08T00:05:49;51.30;;;24.90;;
52432;SDS011;38352;53.244;6.594;2024-03-08T00:08:15;45.75;;;24.65;;
52432;SDS011;38352;53.244;6.594;2024-03-08T00:10:41;53.05;;;25.58;;
52432;SDS011;38352;53.244;6.594;2024-03-08T00:13:07;52.13;;;25.42;;
52432;SDS011;38352;53.244;6.594;2024-03-08T00:15:33;61.55;;;26.58;;
52432;SDS011;38352;53.244;6.594;2024-03-08T00:18:00;50.53;;;26.02;;
52432;SDS011;38352;53.244;6.594;2024-03-08T00:20:26;53.95;;;25.42;;
52432;SDS011;38352;53.244;6.594;2024-03-08T00:22:53;53.45;;;26.90;;
52432;SDS011;38352;53.244;6.594;2024-03-08T00:25:19;52.13;;;26.63;;
52432;SDS011;38352;53.244;6.594;2024-03-08T00:27:45;53.95;;;25.42;;
52432;SDS011;38352;53.244;6.594;2024-03-08T00:30:14;57.17;;;25.52;;
52432;SDS011;38352;53.244;6.594;2024-03-08T00:32:40;59.00;;;25.73;;
52432;SDS011;38352;53.244;6.594;2024-03-08T00:35:06;55.63;;;26.27;;
52432;SDS011;38352;53.244;6.594;2024-03-08T00:37:33;53.25;;;25.63;;
52432;SDS011;38352;53.244;6.594;2024-03-08T00:40:02;53.83;;;25.23;;
52432;SDS011;38352;53.244;6.594;2024-03-08T00:42:29;47.47;;;24.55;;
52432;SDS011;38352;53.244;6.594;2024-03-08T00:44:55;54.47;;;24.73;;
52432;SDS011;38352;53.244;6.594;2024-03-08T00:47:23;53.97;;;25.60;;
52432;SDS011;38352;53.244;6.594;2024-03-08T00:49:49;57.42;;;27.05;;
52432;SDS011;38352;53.244;6.594;2024-03-08T00:52:15;58.92;;;25.67;;
52432;SDS011;38352;53.244;6.594;2024-03-08T00:54:43;56.80;;;27.88;;
52432;SDS011;38352;53.244;6.594;2024-03-08T00:57:09;57.30;;;25.85;;
52432;SDS011;38352;53.244;6.594;2024-03-08T00:59:37;51.65;;;25.40;;
52432;SDS011;38352;53.244;6.594;2024-03-08T01:02:03;59.45;;;25.63;;
52432;SDS011;38352;53.244;6.594;2024-03-08T01:04:31;56.97;;;26.25;;
52432;SDS011;38352;53.244;6.594;2024-03-08T01:06:58;50.35;;;26.00;;
52432;SDS011;38352;53.244;6.594;2024-03-08T01:09:25;60.67;;;25.88;;
52432;SDS011;38352;53.244;6.594;2024-03-08T01:11:52;52.60;;;26.25;;
52432;SDS011;38352;53.244;6.594;2024-03-08T01:14:19;55.28;;;26.13;;
52432;SDS011;38352;53.244;6.594;2024-03-08T01:16:47;52.50;;;24.63;;
52432;SDS011;38352;53.244;6.594;2024-03-08T01:19:14;53.38;;;27.35;;
52432;SDS011;38352;53.244;6.594;2024-03-08T01:21:43;59.60;;;25.98;;
52432;SDS011;38352;53.244;6.594;2024-03-08T01:24:09;51.88;;;24.60;;
52432;SDS011;38352;53.244;6.594;2024-03-08T01:26:35;54.80;;;27.45;;
52432;SDS011;38352;53.244;6.594;2024-03-08T01:29:02;53.70;;;25.13;;
52432;SDS011;38352;53.244;6.594;2024-03-08T01:31:29;49.28;;;24.02;;
52432;SDS011;38352;53.244;6.594;2024-03-08T01:33:55;50.42;;;25.10;;
52432;SDS011;38352;53.244;6.594;2024-03-08T01:36:21;55.67;;;26.17;;
52432;SDS011;38352;53.244;6.594;2024-03-08T01:38:48;49.67;;;25.35;;
52432;SDS011;38352;53.244;6.594;2024-03-08T01:41:14;48.08;;;24.65;;
52432;SDS011;38352;53.244;6.594;2024-03-08T01:43:42;58.00;;;24.67;;
52432;SDS011;38352;53.244;6.594;2024-03-08T01:46:09;50.35;;;24.48;;
52432;SDS011;38352;53.244;6.594;2024-03-08T01:48:35;51.63;;;25.17;;
52432;SDS011;38352;53.244;6.594;2024-03-08T01:51:02;50.50;;;25.45;;
52432;SDS011;38352;53.244;6.594;2024-03-08T01:53:29;53.13;;;26.17;;
52432;SDS011;38352;53.244;6.594;2024-03-08T01:55:56;58.22;;;25.02;;
52432;SDS011;38352;53.244;6.594;2024-03-08T01:58:23;49.95;;;26.15;;
52432;SDS011;38352;53.244;6.594;2024-03-08T02:00:49;46.85;;;23.20;;
52432;SDS011;38352;53.244;6.594;2024-03-08T02:03:18;51.17;;;25.13;;
52432;SDS011;38352;53.244;6.594;2024-03-08T02:05:45;55.55;;;26.17;;
52432;SDS011;38352;53.244;6.594;2024-03-08T02:08:11;51.17;;;25.15;;
52432;SDS011;38352;53.244;6.594;2024-03-08T02:10:43;54.80;;;25.48;;
52432;SDS011;38352;53.244;6.594;2024-03-08T02:13:10;50.15;;;24.23;;
52432;SDS011;38352;53.244;6.594;2024-03-08T02:18:18;50.08;;;25.02;;
52432;SDS011;38352;53.244;6.594;2024-03-08T02:20:48;51.47;;;24.48;;
52432;SDS011;38352;53.244;6.594;2024-03-08T02:23:15;50.15;;;25.25;;
52432;SDS011;38352;53.244;6.594;2024-03-08T02:25:41;53.33;;;24.88;;
52432;SDS011;38352;53.244;6.594;2024-03-08T02:28:09;50.63;;;24.13;;
52432;SDS011;38352;53.244;6.594;2024-03-08T02:30:35;51.28;;;23.58;;
52432;SDS011;38352;53.244;6.594;2024-03-08T02:33:01;44.75;;;22.05;;
52432;SDS011;38352;53.244;6.594;2024-03-08T02:35:27;54.20;;;24.23;;
52432;SDS011;38352;53.244;6.594;2024-03-08T02:37:53;49.55;;;23.88;;
52432;SDS011;38352;53.244;6.594;2024-03-08T02:40:19;43.60;;;23.98;;
52432;SDS011;38352;53.244;6.594;2024-03-08T02:42:47;47.80;;;23.83;;
52432;SDS011;38352;53.244;6.594;2024-03-08T02:45:13;48.80;;;23.13;;
52432;SDS011;38352;53.244;6.594;2024-03-08T02:47:39;45.28;;;22.25;;
52432;SDS011;38352;53.244;6.594;2024-03-08T02:50:06;44.30;;;22.65;;
52432;SDS011;38352;53.244;6.594;2024-03-08T02:52:39;46.92;;;23.98;;
52432;SDS011;38352;53.244;6.594;2024-03-08T02:55:07;48.80;;;22.70;;
52432;SDS011;38352;53.244;6.594;2024-03-08T02:57:35;45.90;;;21.48;;
52432;SDS011;38352;53.244;6.594;2024-03-08T03:00:02;43.90;;;22.33;;
52432;SDS011;38352;53.244;6.594;2024-03-08T03:02:29;44.63;;;23.25;;
52432;SDS011;38352;53.244;6.594;2024-03-08T03:04:55;47.97;;;24.83;;
52432;SDS011;38352;53.244;6.594;2024-03-08T03:07:21;49.20;;;24.27;;
52432;SDS011;38352;53.244;6.594;2024-03-08T03:09:47;47.95;;;22.00;;
52432;SDS011;38352;53.244;6.594;2024-03-08T03:12:13;48.35;;;22.08;;
52432;SDS011;38352;53.244;6.594;2024-03-08T03:14:39;44.15;;;21.77;;
52432;SDS011;38352;53.244;6.594;2024-03-08T03:17:06;44.03;;;22.40;;
52432;SDS011;38352;53.244;6.594;2024-03-08T03:19:32;46.08;;;22.75;;
52432;SDS011;38352;53.244;6.594;2024-03-08T03:21:58;44.33;;;22.67;;
52432;SDS011;38352;53.244;6.594;2024-03-08T03:24:24;45.70;;;22.33;;
52432;SDS011;38352;53.244;6.594;2024-03-08T03:26:54;40.78;;;21.10;;
52432;SDS011;38352;53.244;6.594;2024-03-08T03:29:20;46.10;;;23.20;;
52432;SDS011;38352;53.244;6.594;2024-03-08T03:31:46;43.55;;;20.70;;
52432;SDS011;38352;53.244;6.594;2024-03-08T03:34:13;42.95;;;21.27;;
52432;SDS011;38352;53.244;6.594;2024-03-08T03:36:39;46.85;;;21.75;;
52432;SDS011;38352;53.244;6.594;2024-03-08T03:39:11;43.33;;;23.00;;
52432;SDS011;38352;53.244;6.594;2024-03-08T03:41:44;43.60;;;21.47;;
52432;SDS011;38352;53.244;6.594;2024-03-08T03:44:11;44.03;;;21.67;;
52432;SDS011;38352;53.244;6.594;2024-03-08T03:46:42;54.55;;;21.85;;
52432;SDS011;38352;53.244;6.594;2024-03-08T03:49:11;41.78;;;20.13;;
52432;SDS011;38352;53.244;6.594;2024-03-08T03:51:38;39.75;;;19.67;;
52432;SDS011;38352;53.244;6.594;2024-03-08T03:54:04;40.70;;;20.95;;
52432;SDS011;38352;53.244;6.594;2024-03-08T03:56:30;44.22;;;21.05;;
52432;SDS011;38352;53.244;6.594;2024-03-08T03:58:56;45.33;;;20.60;;
52432;SDS011;38352;53.244;6.594;2024-03-08T04:01:23;39.95;;;20.60;;
52432;SDS011;38352;53.244;6.594;2024-03-08T04:03:49;40.20;;;22.17;;
52432;SDS011;38352;53.244;6.594;2024-03-08T04:06:15;41.25;;;21.02;;
52432;SDS011;38352;53.244;6.594;2024-03-08T04:08:41;42.20;;;21.55;;
52432;SDS011;38352;53.244;6.594;2024-03-08T04:11:07;43.33;;;21.00;;
52432;SDS011;38352;53.244;6.594;2024-03-08T04:13:34;43.60;;;21.40;;
52432;SDS011;38352;53.244;6.594;2024-03-08T04:16:01;41.08;;;20.35;;
52432;SDS011;38352;53.244;6.594;2024-03-08T04:18:28;44.00;;;20.48;;
52432;SDS011;38352;53.244;6.594;2024-03-08T04:20:54;37.03;;;21.40;;
52432;SDS011;38352;53.244;6.594;2024-03-08T04:23:20;43.38;;;20.77;;
52432;SDS011;38352;53.244;6.594;2024-03-08T04:25:46;39.33;;;20.38;;
52432;SDS011;38352;53.244;6.594;2024-03-08T04:28:12;39.85;;;20.20;;
52432;SDS011;38352;53.244;6.594;2024-03-08T04:30:39;37.42;;;19.20;;
52432;SDS011;38352;53.244;6.594;2024-03-08T04:33:05;39.67;;;19.75;;
52432;SDS011;38352;53.244;6.594;2024-03-08T04:35:32;41.20;;;19.67;;
52432;SDS011;38352;53.244;6.594;2024-03-08T04:37:58;45.25;;;21.13;;
52432;SDS011;38352;53.244;6.594;2024-03-08T04:40:24;42.33;;;20.02;;
52432;SDS011;38352;53.244;6.594;2024-03-08T04:42:50;41.25;;;19.60;;
52432;SDS011;38352;53.244;6.594;2024-03-08T04:45:17;41.95;;;20.13;;
52432;SDS011;38352;53.244;6.594;2024-03-08T04:47:43;41.88;;;20.80;;
52432;SDS011;38352;53.244;6.594;2024-03-08T04:50:10;34.92;;;18.58;;
52432;SDS011;38352;53.244;6.594;2024-03-08T04:52:36;41.33;;;19.90;;
52432;SDS011;38352;53.244;6.594;2024-03-08T04:55:02;37.95;;;19.05;;
52432;SDS011;38352;53.244;6.594;2024-03-08T04:57:31;41.53;;;20.60;;
52432;SDS011;38352;53.244;6.594;2024-03-08T04:59:58;42.15;;;20.02;;
52432;SDS011;38352;53.244;6.594;2024-03-08T05:02:24;40.60;;;19.73;;
52432;SDS011;38352;53.244;6.594;2024-03-08T05:04:50;39.00;;;19.45;;
52432;SDS011;38352;53.244;6.594;2024-03-08T05:07:17;37.53;;;19.30;;
52432;SDS011;38352;53.244;6.594;2024-03-08T05:09:44;36.67;;;19.13;;
52432;SDS011;38352;53.244;6.594;2024-03-08T05:12:16;40.72;;;19.25;;
52432;SDS011;38352;53.244;6.594;2024-03-08T05:14:43;43.42;;;21.02;;
52432;SDS011;38352;53.244;6.594;2024-03-08T05:17:09;40.60;;;19.92;;
52432;SDS011;38352;53.244;6.594;2024-03-08T05:19:35;39.95;;;20.90;;
52432;SDS011;38352;53.244;6.594;2024-03-08T05:22:02;42.60;;;19.52;;
52432;SDS011;38352;53.244;6.594;2024-03-08T05:24:28;44.42;;;21.33;;
52432;SDS011;38352;53.244;6.594;2024-03-08T05:26:55;37.72;;;19.20;;
52432;SDS011;38352;53.244;6.594;2024-03-08T05:29:21;39.03;;;20.83;;
52432;SDS011;38352;53.244;6.594;2024-03-08T05:31:49;41.53;;;21.35;;
52432;SDS011;38352;53.244;6.594;2024-03-08T05:34:15;39.45;;;20.17;;
52432;SDS011;38352;53.244;6.594;2024-03-08T05:36:42;38.83;;;18.85;;
52432;SDS011;38352;53.244;6.594;2024-03-08T05:39:20;40.70;;;19.27;;
52432;SDS011;38352;53.244;6.594;2024-03-08T05:41:46;36.03;;;18.52;;
52432;SDS011;38352;53.244;6.594;2024-03-08T05:44:13;41.40;;;20.80;;
52432;SDS011;38352;53.244;6.594;2024-03-08T05:46:39;38.67;;;19.63;;
52432;SDS011;38352;53.244;6.594;2024-03-08T05:49:06;39.13;;;19.08;;
52432;SDS011;38352;53.244;6.594;2024-03-08T05:51:35;36.05;;;19.02;;
52432;SDS011;38352;53.244;6.594;2024-03-08T05:54:02;39.92;;;18.48;;
52432;SDS011;38352;53.244;6.594;2024-03-08T05:56:31;36.08;;;18.17;;
52432;SDS011;38352;53.244;6.594;2024-03-08T05:58:58;38.05;;;19.58;;
52432;SDS011;38352;53.244;6.594;2024-03-08T06:01:24;40.30;;;20.42;;
52432;SDS011;38352;53.244;6.594;2024-03-08T06:03:51;39.05;;;21.10;;
52432;SDS011;38352;53.244;6.594;2024-03-08T06:06:20;37.90;;;18.42;;
52432;SDS011;38352;53.244;6.594;2024-03-08T06:08:47;43.08;;;19.33;;
52432;SDS011;38352;53.244;6.594;2024-03-08T06:11:17;40.95;;;18.60;;
52432;SDS011;38352;53.244;6.594;2024-03-08T06:13:44;38.92;;;19.08;;
52432;SDS011;38352;53.244;6.594;2024-03-08T06:16:10;39.40;;;19.85;;
52432;SDS011;38352;53.244;6.594;2024-03-08T06:18:36;36.50;;;19.02;;
52432;SDS011;38352;53.244;6.594;2024-03-08T06:21:04;37.97;;;18.83;;
52432;SDS011;38352;53.244;6.594;2024-03-08T06:23:33;36.55;;;19.58;;
52432;SDS011;38352;53.244;6.594;2024-03-08T06:25:59;40.03;;;19.38;;
52432;SDS011;38352;53.244;6.594;2024-03-08T06:28:26;38.28;;;18.90;;
52432;SDS011;38352;53.244;6.594;2024-03-08T06:30:52;38.92;;;19.00;;
52432;SDS011;38352;53.244;6.594;2024-03-08T06:33:18;38.92;;;19.13;;
52432;SDS011;38352;53.244;6.594;2024-03-08T06:35:44;39.05;;;20.08;;
52432;SDS011;38352;53.244;6.594;2024-03-08T06:38:10;40.95;;;19.98;;
52432;SDS011;38352;53.244;6.594;2024-03-08T06:40:36;37.55;;;18.85;;
52432;SDS011;38352;53.244;6.594;2024-03-08T06:43:03;36.28;;;18.48;;
52432;SDS011;38352;53.244;6.594;2024-03-08T06:45:32;35.25;;;19.90;;
52432;SDS011;38352;53.244;6.594;2024-03-08T06:47:58;40.70;;;18.38;;
52432;SDS011;38352;53.244;6.594;2024-03-08T06:50:25;38.72;;;19.63;;
52432;SDS011;38352;53.244;6.594;2024-03-08T06:52:51;36.33;;;18.48;;
52432;SDS011;38352;53.244;6.594;2024-03-08T06:55:21;36.10;;;19.60;;
52432;SDS011;38352;53.244;6.594;2024-03-08T06:57:47;36.92;;;20.40;;
52432;SDS011;38352;53.244;6.594;2024-03-08T07:00:14;42.63;;;19.63;;
52432;SDS011;38352;53.244;6.594;2024-03-08T07:02:46;40.25;;;18.63;;
52432;SDS011;38352;53.244;6.594;2024-03-08T07:05:18;40.90;;;19.33;;
52432;SDS011;38352;53.244;6.594;2024-03-08T07:07:45;35.00;;;19.08;;
52432;SDS011;38352;53.244;6.594;2024-03-08T07:10:13;39.22;;;19.02;;
52432;SDS011;38352;53.244;6.594;2024-03-08T07:12:41;38.97;;;17.83;;
52432;SDS011;38352;53.244;6.594;2024-03-08T07:15:07;36.50;;;18.90;;
52432;SDS011;38352;53.244;6.594;2024-03-08T07:17:38;35.25;;;18.13;;
52432;SDS011;38352;53.244;6.594;2024-03-08T07:20:05;34.63;;;18.75;;
52432;SDS011;38352;53.244;6.594;2024-03-08T07:22:36;40.72;;;20.08;;
52432;SDS011;38352;53.244;6.594;2024-03-08T07:25:04;39.65;;;18.52;;
52432;SDS011;38352;53.244;6.594;2024-03-08T07:27:50;39.22;;;19.50;;
52432;SDS011;38352;53.244;6.594;2024-03-08T07:30:19;35.00;;;17.98;;
52432;SDS011;38352;53.244;6.594;2024-03-08T07:33:04;38.80;;;18.10;;
52432;SDS011;38352;53.244;6.594;2024-03-08T07:35:32;36.47;;;18.55;;
52432;SDS011;38352;53.244;6.594;2024-03-08T07:37:58;41.60;;;18.90;;
52432;SDS011;38352;53.244;6.594;2024-03-08T07:40:25;35.35;;;18.70;;
52432;SDS011;38352;53.244;6.594;2024-03-08T07:42:52;36.22;;;19.55;;
52432;SDS011;38352;53.244;6.594;2024-03-08T07:45:18;39.53;;;18.98;;
52432;SDS011;38352;53.244;6.594;2024-03-08T07:47:44;39.20;;;18.60;;
52432;SDS011;38352;53.244;6.594;2024-03-08T07:50:10;41.03;;;20.05;;
52432;SDS011;38352;53.244;6.594;2024-03-08T07:52:41;37.80;;;18.65;;
52432;SDS011;38352;53.244;6.594;2024-03-08T07:55:08;37.65;;;19.30;;
52432;SDS011;38352;53.244;6.594;2024-03-08T07:57:35;44.47;;;19.73;;
52432;SDS011;38352;53.244;6.594;2024-03-08T08:00:04;41.88;;;22.92;;
52432;SDS011;38352;53.244;6.594;2024-03-08T08:02:32;44.20;;;19.08;;
52432;SDS011;38352;53.244;6.594;2024-03-08T08:04:59;39.80;;;20.27;;
52432;SDS011;38352;53.244;6.594;2024-03-08T08:07:25;37.92;;;19.65;;
52432;SDS011;38352;53.244;6.594;2024-03-08T08:09:52;41.20;;;20.85;;
52432;SDS011;38352;53.244;6.594;2024-03-08T08:12:18;36.10;;;18.38;;
52432;SDS011;38352;53.244;6.594;2024-03-08T08:14:46;37.42;;;18.52;;
52432;SDS011;38352;53.244;6.594;2024-03-08T08:17:12;40.30;;;19.20;;
52432;SDS011;38352;53.244;6.594;2024-03-08T08:19:40;34.88;;;19.40;;
52432;SDS011;38352;53.244;6.594;2024-03-08T08:22:06;38.00;;;19.85;;
52432;SDS011;38352;53.244;6.594;2024-03-08T08:24:34;42.50;;;20.25;;
52432;SDS011;38352;53.244;6.594;2024-03-08T08:27:02;40.42;;;20.35;;
52432;SDS011;38352;53.244;6.594;2024-03-08T08:29:28;41.67;;;19.80;;
52432;SDS011;38352;53.244;6.594;2024-03-08T08:31:57;39.47;;;18.95;;
52432;SDS011;38352;53.244;6.594;2024-03-08T08:34:24;33.83;;;17.90;;
52432;SDS011;38352;53.244;6.594;2024-03-08T08:36:51;36.35;;;20.00;;
52432;SDS011;38352;53.244;6.594;2024-03-08T08:39:18;35.78;;;18.58;;
52432;SDS011;38352;53.244;6.594;2024-03-08T08:41:44;42.17;;;19.65;;
52432;SDS011;38352;53.244;6.594;2024-03-08T08:44:10;40.42;;;20.00;;
52432;SDS011;38352;53.244;6.594;2024-03-08T08:46:38;39.45;;;20.33;;
52432;SDS011;38352;53.244;6.594;2024-03-08T08:49:04;38.90;;;21.48;;
52432;SDS011;38352;53.244;6.594;2024-03-08T08:51:31;38.58;;;20.15;;
52432;SDS011;38352;53.244;6.594;2024-03-08T08:53:58;38.65;;;19.77;;
52432;SDS011;38352;53.244;6.594;2024-03-08T08:56:25;38.65;;;18.90;;
52432;SDS011;38352;53.244;6.594;2024-03-08T08:58:51;58.15;;;21.08;;
52432;SDS011;38352;53.244;6.594;2024-03-08T09:01:20;49.58;;;21.45;;
52432;SDS011;38352;53.244;6.594;2024-03-08T09:03:46;36.17;;;19.70;;
52432;SDS011;38352;53.244;6.594;2024-03-08T09:06:13;35.90;;;20.45;;
52432;SDS011;38352;53.244;6.594;2024-03-08T09:08:39;42.95;;;20.73;;
52432;SDS011;38352;53.244;6.594;2024-03-08T09:11:05;36.90;;;18.85;;
52432;SDS011;38352;53.244;6.594;2024-03-08T09:13:32;39.03;;;20.48;;
52432;SDS011;38352;53.244;6.594;2024-03-08T09:16:02;68.90;;;24.42;;
52432;SDS011;38352;53.244;6.594;2024-03-08T09:18:30;28.65;;;17.52;;
52432;SDS011;38352;53.244;6.594;2024-03-08T09:20:57;31.25;;;18.02;;
52432;SDS011;38352;53.244;6.594;2024-03-08T09:23:24;35.17;;;19.48;;
52432;SDS011;38352;53.244;6.594;2024-03-08T09:25:55;35.95;;;19.10;;
52432;SDS011;38352;53.244;6.594;2024-03-08T09:28:22;37.72;;;19.42;;
52432;SDS011;38352;53.244;6.594;2024-03-08T09:30:49;34.15;;;19.15;;
52432;SDS011;38352;53.244;6.594;2024-03-08T09:33:15;30.67;;;18.20;;
52432;SDS011;38352;53.244;6.594;2024-03-08T09:35:47;38.08;;;20.00;;
52432;SDS011;38352;53.244;6.594;2024-03-08T09:38:14;38.88;;;20.23;;
52432;SDS011;38352;53.244;6.594;2024-03-08T09:40:43;37.33;;;18.83;;
52432;SDS011;38352;53.244;6.594;2024-03-08T09:43:11;37.88;;;20.50;;
52432;SDS011;38352;53.244;6.594;2024-03-08T09:45:37;34.75;;;20.15;;
52432;SDS011;38352;53.244;6.594;2024-03-08T09:48:10;36.88;;;19.67;;
52432;SDS011;38352;53.244;6.594;2024-03-08T09:50:42;42.50;;;23.83;;
52432;SDS011;38352;53.244;6.594;2024-03-08T09:53:08;36.30;;;20.38;;
52432;SDS011;38352;53.244;6.594;2024-03-08T09:55:38;38.72;;;21.20;;
52432;SDS011;38352;53.244;6.594;2024-03-08T09:58:12;44.03;;;23.50;;
52432;SDS011;38352;53.244;6.594;2024-03-08T10:00:52;54.13;;;28.45;;
52432;SDS011;38352;53.244;6.594;2024-03-08T10:03:19;41.70;;;22.45;;
52432;SDS011;38352;53.244;6.594;2024-03-08T10:05:45;39.72;;;21.98;;
52432;SDS011;38352;53.244;6.594;2024-03-08T10:08:11;35.05;;;19.63;;
52432;SDS011;38352;53.244;6.594;2024-03-08T10:10:38;34.83;;;19.20;;
52432;SDS011;38352;53.244;6.594;2024-03-08T10:13:08;37.47;;;21.63;;
52432;SDS011;38352;53.244;6.594;2024-03-08T10:15:34;36.38;;;21.00;;
52432;SDS011;38352;53.244;6.594;2024-03-08T10:18:00;37.42;;;21.30;;
52432;SDS011;38352;53.244;6.594;2024-03-08T10:20:30;41.15;;;22.90;;
52432;SDS011;38352;53.244;6.594;2024-03-08T10:22:59;35.78;;;21.00;;
52432;SDS011;38352;53.244;6.594;2024-03-08T10:25:31;33.63;;;19.90;;
52432;SDS011;38352;53.244;6.594;2024-03-08T10:27:57;39.40;;;21.30;;
52432;SDS011;38352;53.244;6.594;2024-03-08T10:30:23;39.50;;;21.02;;
52432;SDS011;38352;53.244;6.594;2024-03-08T10:32:50;33.17;;;19.55;;
52432;SDS011;38352;53.244;6.594;2024-03-08T10:35:17;34.58;;;20.65;;
52432;SDS011;38352;53.244;6.594;2024-03-08T10:37:47;41.22;;;21.13;;
52432;SDS011;38352;53.244;6.594;2024-03-08T10:40:18;31.33;;;19.65;;
52432;SDS011;38352;53.244;6.594;2024-03-08T10:42:55;36.08;;;20.75;;
52432;SDS011;38352;53.244;6.594;2024-03-08T10:47:49;35.15;;;20.90;;
52432;SDS011;38352;53.244;6.594;2024-03-08T10:50:18;36.80;;;20.95;;
52432;SDS011;38352;53.244;6.594;2024-03-08T10:52:51;36.40;;;21.58;;
52432;SDS011;38352;53.244;6.594;2024-03-08T10:55:18;36.70;;;20.60;;
52432;SDS011;38352;53.244;6.594;2024-03-08T10:57:45;36.40;;;20.50;;
52432;SDS011;38352;53.244;6.594;2024-03-08T11:00:13;32.30;;;19.38;;
52432;SDS011;38352;53.244;6.594;2024-03-08T11:02:48;33.08;;;20.13;;
52432;SDS011;38352;53.244;6.594;2024-03-08T11:05:36;35.63;;;21.98;;
52432;SDS011;38352;53.244;6.594;2024-03-08T11:08:24;36.42;;;21.27;;
52432;SDS011;38352;53.244;6.594;2024-03-08T11:10:51;34.20;;;21.35;;
52432;SDS011;38352;53.244;6.594;2024-03-08T11:13:35;32.08;;;20.00;;
52432;SDS011;38352;53.244;6.594;2024-03-08T11:16:02;39.72;;;21.00;;
52432;SDS011;38352;53.244;6.594;2024-03-08T11:18:34;37.10;;;21.63;;
52432;SDS011;38352;53.244;6.594;2024-03-08T11:21:10;34.17;;;20.35;;
52432;SDS011;38352;53.244;6.594;2024-03-08T11:23:37;36.25;;;22.35;;
52432;SDS011;38352;53.244;6.594;2024-03-08T11:26:21;32.75;;;20.77;;
52432;SDS011;38352;53.244;6.594;2024-03-08T11:28:49;34.50;;;21.77;;
52432;SDS011;38352;53.244;6.594;2024-03-08T11:33:47;37.97;;;22.42;;
52432;SDS011;38352;53.244;6.594;2024-03-08T11:36:23;34.58;;;23.80;;
52432;SDS011;38352;53.244;6.594;2024-03-08T11:38:50;38.28;;;22.25;;
52432;SDS011;38352;53.244;6.594;2024-03-08T11:41:21;31.60;;;21.10;;
52432;SDS011;38352;53.244;6.594;2024-03-08T11:43:48;36.03;;;22.55;;
52432;SDS011;38352;53.244;6.594;2024-03-08T11:46:15;31.23;;;21.65;;
52432;SDS011;38352;53.244;6.594;2024-03-08T11:48:42;31.95;;;21.45;;
52432;SDS011;38352;53.244;6.594;2024-03-08T11:51:09;32.92;;;21.58;;
52432;SDS011;38352;53.244;6.594;2024-03-08T11:53:36;37.35;;;21.73;;
52432;SDS011;38352;53.244;6.594;2024-03-08T11:56:12;35.28;;;22.60;;
52432;SDS011;38352;53.244;6.594;2024-03-08T11:58:39;32.33;;;20.80;;
52432;SDS011;38352;53.244;6.594;2024-03-08T12:03:32;36.65;;;23.00;;
52432;SDS011;38352;53.244;6.594;2024-03-08T12:06:02;34.58;;;20.95;;
52432;SDS011;38352;53.244;6.594;2024-03-08T12:08:30;33.97;;;20.20;;
52432;SDS011;38352;53.244;6.594;2024-03-08T12:10:59;37.53;;;21.60;;
52432;SDS011;38352;53.244;6.594;2024-03-08T12:13:32;32.60;;;20.10;;
52432;SDS011;38352;53.244;6.594;2024-03-08T12:15:59;35.93;;;21.83;;
52432;SDS011;38352;53.244;6.594;2024-03-08T12:18:26;28.60;;;19.17;;
52432;SDS011;38352;53.244;6.594;2024-03-08T12:21:05;32.97;;;21.73;;
52432;SDS011;38352;53.244;6.594;2024-03-08T12:23:33;31.15;;;19.55;;
52432;SDS011;38352;53.244;6.594;2024-03-08T12:29:14;28.90;;;19.70;;
52432;SDS011;38352;53.244;6.594;2024-03-08T12:31:42;33.58;;;20.27;;
52432;SDS011;38352;53.244;6.594;2024-03-08T12:34:08;29.92;;;19.92;;
52432;SDS011;38352;53.244;6.594;2024-03-08T12:36:35;32.55;;;20.13;;
52432;SDS011;38352;53.244;6.594;2024-03-08T12:39:01;28.60;;;20.63;;
52432;SDS011;38352;53.244;6.594;2024-03-08T12:41:30;31.55;;;22.42;;
52432;SDS011;38352;53.244;6.594;2024-03-08T12:43:57;31.20;;;21.02;;
52432;SDS011;38352;53.244;6.594;2024-03-08T12:46:23;31.48;;;20.95;;
52432;SDS011;38352;53.244;6.594;2024-03-08T12:48:55;29.80;;;20.95;;
52432;SDS011;38352;53.244;6.594;2024-03-08T12:51:21;31.70;;;20.40;;
52432;SDS011;38352;53.244;6.594;2024-03-08T12:53:47;29.98;;;20.02;;
52432;SDS011;38352;53.244;6.594;2024-03-08T12:56:28;29.20;;;19.45;;
52432;SDS011;38352;53.244;6.594;2024-03-08T12:58:55;29.27;;;20.40;;
52432;SDS011;38352;53.244;6.594;2024-03-08T13:01:21;29.92;;;19.77;;
52432;SDS011;38352;53.244;6.594;2024-03-08T13:03:48;33.85;;;20.55;;
52432;SDS011;38352;53.244;6.594;2024-03-08T13:06:18;29.10;;;20.40;;
52432;SDS011;38352;53.244;6.594;2024-03-08T13:08:46;29.77;;;19.95;;
52432;SDS011;38352;53.244;6.594;2024-03-08T13:11:13;30.63;;;19.63;;
52432;SDS011;38352;53.244;6.594;2024-03-08T13:13:40;26.90;;;19.70;;
52432;SDS011;38352;53.244;6.594;2024-03-08T13:16:07;29.70;;;20.08;;
52432;SDS011;38352;53.244;6.594;2024-03-08T13:18:34;27.10;;;18.75;;
52432;SDS011;38352;53.244;6.594;2024-03-08T13:21:00;29.92;;;20.75;;
52432;SDS011;38352;53.244;6.594;2024-03-08T13:23:34;27.33;;;19.13;;
52432;SDS011;38352;53.244;6.594;2024-03-08T13:26:10;28.48;;;19.27;;
52432;SDS011;38352;53.244;6.594;2024-03-08T13:28:46;26.75;;;19.10;;
52432;SDS011;38352;53.244;6.594;2024-03-08T13:31:23;24.33;;;17.42;;
52432;SDS011;38352;53.244;6.594;2024-03-08T13:33:49;23.75;;;17.52;;
52432;SDS011;38352;53.244;6.594;2024-03-08T13:36:22;24.23;;;17.70;;
52432;SDS011;38352;53.244;6.594;2024-03-08T13:38:49;24.42;;;17.42;;
52432;SDS011;38352;53.244;6.594;2024-03-08T13:41:15;24.77;;;17.80;;
52432;SDS011;38352;53.244;6.594;2024-03-08T13:43:48;23.90;;;18.02;;
52432;SDS011;38352;53.244;6.594;2024-03-08T13:46:15;21.70;;;16.15;;
52432;SDS011;38352;53.244;6.594;2024-03-08T13:48:41;24.92;;;17.48;;
52432;SDS011;38352;53.244;6.594;2024-03-08T13:51:08;23.10;;;17.23;;
52432;SDS011;38352;53.244;6.594;2024-03-08T13:53:40;26.52;;;18.38;;
52432;SDS011;38352;53.244;6.594;2024-03-08T13:56:06;27.45;;;17.80;;
52432;SDS011;38352;53.244;6.594;2024-03-08T13:58:35;23.90;;;17.40;;
52432;SDS011;38352;53.244;6.594;2024-03-08T14:01:01;24.00;;;17.70;;
52432;SDS011;38352;53.244;6.594;2024-03-08T14:03:30;24.60;;;18.02;;
52432;SDS011;38352;53.244;6.594;2024-03-08T14:05:57;25.02;;;18.02;;
52432;SDS011;38352;53.244;6.594;2024-03-08T14:08:25;27.25;;;18.77;;
52432;SDS011;38352;53.244;6.594;2024-03-08T14:10:52;25.63;;;17.25;;
52432;SDS011;38352;53.244;6.594;2024-03-08T14:13:19;25.58;;;18.27;;
52432;SDS011;38352;53.244;6.594;2024-03-08T14:15:46;26.17;;;17.58;;
52432;SDS011;38352;53.244;6.594;2024-03-08T14:18:13;22.60;;;16.73;;
52432;SDS011;38352;53.244;6.594;2024-03-08T14:20:40;25.13;;;17.52;;
52432;SDS011;38352;53.244;6.594;2024-03-08T14:23:07;23.48;;;16.70;;
52432;SDS011;38352;53.244;6.594;2024-03-08T14:25:33;23.92;;;17.05;;
52432;SDS011;38352;53.244;6.594;2024-03-08T14:27:59;27.50;;;17.58;;
52432;SDS011;38352;53.244;6.594;2024-03-08T14:30:32;23.42;;;16.80;;
52432;SDS011;38352;53.244;6.594;2024-03-08T14:33:06;22.38;;;15.98;;
52432;SDS011;38352;53.244;6.594;2024-03-08T14:35:37;25.40;;;17.23;;
52432;SDS011;38352;53.244;6.594;2024-03-08T14:38:04;25.73;;;17.00;;